Wetter

Nordholz:

METAR:

2019/11/17 20:20 ETMN 172020Z 05011KT 9999 -RA BKN043 06/04 Q1010 BLU

TAF:

2019/11/15 12:31 TAF ETMN 151101Z 1512/1521 08010KT 9000 NSW BKN010 BKN150 TEMPO 1512/1521 09015G25KT 3000 -DZ BKN005 BKN120

Wind EDXN:

18.11. 00:10z 010/15G20kt
18.11. 00:20z 010/15G20kt
18.11. 00:30z 010/15G19kt
18.11. 00:40z 010/13G18kt
18.11. 00:50z 010/16G22kt
18.11. 01:00z 020/16G22kt
18.11. 01:10z 020/16G25kt
18.11. 01:20z 020/17G22kt
18.11. 01:30z 020/15G20kt
18.11. 01:40z 020/14G26kt

Bremen:

METAR:

2019/11/17 20:20 EDDW 172020Z 01011KT 9000 -RA FEW009 BKN025 05/04 Q1009 R88/290094 BECMG BKN011

TAF:

2019/11/17 18:30 TAF EDDW 171700Z 1718/1818 02007KT 9999 FEW025 BKN040 BECMG 1719/1722 BKN011 PROB40 TEMPO 1720/1722 3500 -DZ BKN006 BECMG 1722/1801 4000 BR OVC006 TEMPO 1723/1803 2000 DZ BKN003 BECMG 1803/1805 34002KT 2000 OVC003 PROB30 TEMPO 1806/1809 1000 OVC001 BECMG 1810/1813 19006KT 4000 BKN008 BECMG 1813/1816 9999 BKN015

Hamburg:

METAR:

2019/11/17 20:20 EDDH 172020Z 02009KT 340V040 9999 BKN007 06/05 Q1009 NOSIG

TAF:

2019/11/17 20:25 TAF AMD EDDH 172018Z 1720/1824 04008KT 9999 FEW020 BKN030 BECMG 1720/1723 4000 BR OVC006 TEMPO 1721/1802 1800 DZ BKN003 BECMG 1802/1804 2000 OVC003 BECMG 1804/1806 14002KT BECMG 1808/1811 18007KT 4000 BKN006 BECMG 1813/1816 9999 BKN015

Hannover:

METAR:

2019/11/17 20:20 EDDV 172020Z 03006KT 360V060 7000 BKN005 05/04 Q1007 TEMPO 4000 BR BKN004

TAF:

2019/11/17 18:30 TAF TAF EDDV 171700Z 1718/1818 03007KT 6000 OVC006 BECMG 1718/1720 3500 BR TEMPO 1718/1722 2000 DZ BKN003 BECMG 1722/1801 VRB02KT 2000 OVC003 PROB30 TEMPO 1802/1808 0500 FG OVC000 BECMG 1807/1810 19006KT 4000 BKN007 BECMG 1810/1813 9999 BKN015

Wikipedia Artikel: METARTAF

Daten von Aviation Weather Center der NOAA, es kann keine Garantie für Aktualität und Richtigkeit der Daten übernommen werden.

Die Nutzung dieser Daten zur Flugplanung ist nicht zulässig!

Inoffizielle ATIS 🙂